Time;durP1;ratioP1;P1;durP2;ratioP2;P2;SDS_P1;SDS_P2;PMS_P1;PMS_P2;Temp;Humidity;BMP_temperature;BMP_pressure;BME280_temperature;BME280_humidity;BME280_pressure;Samples;Min_cycle;Max_cycle;Signal;HPM_P1;HPM_P2
2022/11/01 00:01:16;;;;;;;53.83;48.53;;;;;;;7.52;100.00;101803.50;5053156;28;20072;-81
2022/11/01 00:03:44;;;;;;;55.20;49.17;;;;;;;7.65;100.00;101809.16;5054411;28;20524;-81
2022/11/01 00:06:11;;;;;;;50.35;46.00;;;;;;;7.67;100.00;101811.66;5052654;28;20122;-82
2022/11/01 00:08:37;;;;;;;45.97;41.88;;;;;;;7.53;100.00;101805.13;5053555;28;20460;-81
2022/11/01 00:11:06;;;;;;;47.55;43.20;;;;;;;7.58;100.00;101814.25;5051705;28;20049;-85
2022/11/01 00:13:33;;;;;;;50.08;45.50;;;;;;;7.66;100.00;101815.28;5052808;28;20405;-84
2022/11/01 00:16:00;;;;;;;48.50;43.75;;;;;;;7.75;100.00;101803.75;5054814;28;20218;-84
2022/11/01 00:18:27;;;;;;;50.05;44.83;;;;;;;7.72;100.00;101806.72;5054814;28;20083;-81
2022/11/01 00:20:55;;;;;;;50.38;45.35;;;;;;;7.75;100.00;101804.56;5050370;28;20045;-84
2022/11/01 00:23:22;;;;;;;52.05;46.80;;;;;;;7.79;100.00;101803.25;5053536;28;20044;-85
2022/11/01 00:25:49;;;;;;;52.75;47.55;;;;;;;7.66;100.00;101794.97;5049368;28;20400;-81
2022/11/01 00:28:16;;;;;;;49.83;44.63;;;;;;;7.64;100.00;101793.47;5053881;28;20053;-84
2022/11/01 00:30:42;;;;;;;53.67;48.45;;;;;;;7.67;100.00;101801.06;5054229;28;20102;-81
2022/11/01 00:33:10;;;;;;;49.55;44.65;;;;;;;7.11;100.00;101796.22;5049684;28;20056;-81
2022/11/01 00:35:37;;;;;;;51.53;46.70;;;;;;;7.39;100.00;101796.00;5054069;28;20134;-85
2022/11/01 00:38:05;;;;;;;47.45;43.25;;;;;;;7.42;100.00;101787.75;5054127;28;20059;-84
2022/11/01 00:40:32;;;;;;;45.72;41.53;;;;;;;7.37;100.00;101794.50;5053517;28;20088;-84
2022/11/01 00:42:59;;;;;;;45.92;41.20;;;;;;;7.42;100.00;101792.22;5050134;28;20106;-82
2022/11/01 00:45:26;;;;;;;44.65;40.58;;;;;;;7.48;100.00;101796.88;5054073;28;20052;-85
2022/11/01 00:47:52;;;;;;;47.08;42.88;;;;;;;7.50;100.00;101801.03;5051187;28;20041;-86
2022/11/01 00:50:19;;;;;;;47.05;42.53;;;;;;;7.48;100.00;101792.41;5053929;28;20114;-86
2022/11/01 00:52:46;;;;;;;50.88;46.17;;;;;;;7.41;100.00;101796.66;5053419;28;20056;-81
2022/11/01 00:55:15;;;;;;;55.10;49.97;;;;;;;7.39;100.00;101803.13;5049735;28;20470;-85
2022/11/01 00:57:43;;;;;;;58.78;52.60;;;;;;;7.26;100.00;101798.25;5044340;28;20504;-84
2022/11/01 01:02:46;;;;;;;55.10;49.10;;;;;;;6.84;100.00;101797.19;5090230;22;20079;-87
2022/11/01 01:05:13;;;;;;;56.67;51.00;;;;;;;7.17;100.00;101794.75;5050813;28;20048;-84
2022/11/01 01:07:40;;;;;;;56.72;51.03;;;;;;;7.21;100.00;101793.44;5049110;28;20049;-87
2022/11/01 01:10:08;;;;;;;58.17;52.05;;;;;;;7.16;100.00;101792.25;5039052;28;20045;-84
2022/11/01 01:12:36;;;;;;;54.28;48.53;;;;;;;7.04;100.00;101783.78;5054030;28;20473;-86
2022/11/01 01:15:04;;;;;;;53.95;48.55;;;;;;;7.06;100.00;101789.72;5041014;28;20052;-86
2022/11/01 01:17:32;;;;;;;49.53;44.53;;;;;;;7.10;100.00;101783.97;5053855;28;20045;-85
2022/11/01 01:19:59;;;;;;;48.15;43.40;;;;;;;6.95;100.00;101790.81;5050534;28;20642;-86
2022/11/01 01:22:27;;;;;;;48.88;43.92;;;;;;;6.98;100.00;101789.69;5048281;28;20049;-85
2022/11/01 01:24:54;;;;;;;51.35;46.22;;;;;;;6.98;100.00;101792.31;5047330;28;20049;-87
2022/11/01 01:27:20;;;;;;;47.28;42.60;;;;;;;6.98;100.00;101787.03;5042073;28;20058;-87
2022/11/01 01:29:49;;;;;;;47.20;42.88;;;;;;;6.96;100.00;101787.22;5047046;28;20064;-87
2022/11/01 01:32:17;;;;;;;45.53;41.45;;;;;;;6.92;100.00;101785.03;5049967;28;20052;-87
2022/11/01 01:34:44;;;;;;;47.25;42.88;;;;;;;6.87;100.00;101790.78;5049911;28;20504;-88
2022/11/01 01:37:14;;;;;;;46.47;42.45;;;;;;;6.82;100.00;101787.78;5051493;28;20049;-87
2022/11/01 01:39:42;;;;;;;48.42;44.47;;;;;;;6.89;100.00;101794.91;5035262;28;20103;-83
2022/11/01 01:42:16;;;;;;;42.30;38.38;;;;;;;6.54;100.00;101782.63;5046863;28;20134;-84
2022/11/01 01:45:19;;;;;;;45.88;41.85;;;;;;;6.78;100.00;101783.78;5045516;28;20453;-84
2022/11/01 01:47:51;;;;;;;46.20;42.47;;;;;;;6.89;100.00;101784.34;5043358;28;20375;-87
2022/11/01 01:50:24;;;;;;;47.58;43.50;;;;;;;6.87;100.00;101785.50;5040272;28;20490;-84
2022/11/01 01:52:56;;;;;;;48.05;43.80;;;;;;;6.93;100.00;101786.66;5049763;28;20053;-83
2022/11/01 01:55:27;;;;;;;45.33;41.20;;;;;;;6.70;100.00;101783.72;5049663;28;20053;-84
2022/11/01 01:57:57;;;;;;;45.13;40.88;;;;;;;6.61;100.00;101796.03;5055525;28;20118;-84
2022/11/01 02:00:23;;;;;;;46.30;42.28;;;;;;;6.62;100.00;101787.94;5056911;28;20049;-83
2022/11/01 02:02:52;;;;;;;48.25;43.97;;;;;;;6.43;100.00;101802.16;5051998;28;20435;-83
2022/11/01 02:05:26;;;;;;;43.22;39.40;;;;;;;6.22;100.00;101792.91;5053848;28;20465;-88
2022/11/01 02:07:54;;;;;;;46.88;42.55;;;;;;;6.32;100.00;101788.38;5046306;28;20053;-83
2022/11/01 02:10:22;;;;;;;46.10;41.67;;;;;;;6.50;100.00;101793.63;5041859;28;20041;-83
2022/11/01 02:12:49;;;;;;;45.35;40.95;;;;;;;6.60;100.00;101791.75;5056820;28;20059;-83
2022/11/01 02:15:18;;;;;;;44.00;39.95;;;;;;;6.29;100.00;101800.03;5054978;28;20132;-83
2022/11/01 02:18:12;;;;;;;43.80;39.60;;;;;;;6.26;100.00;101802.16;5056546;28;20105;-83
2022/11/01 02:21:00;;;;;;;49.15;45.00;;;;;;;6.39;100.00;101802.63;5048806;28;20048;-86
2022/11/01 02:23:56;;;;;;;49.70;44.67;;;;;;;6.44;100.00;101805.63;5050115;28;20053;-83
2022/11/01 02:26:50;;;;;;;49.05;44.75;;;;;;;6.25;100.00;101805.78;5055548;28;20056;-84
2022/11/01 02:29:39;;;;;;;49.45;45.13;;;;;;;6.39;100.00;101807.91;5055891;28;20122;-82
2022/11/01 02:32:17;;;;;;;47.47;43.35;;;;;;;6.49;100.00;101802.53;5049141;28;20049;-83
2022/11/01 02:34:50;;;;;;;46.60;42.70;;;;;;;6.46;100.00;101798.38;5053619;28;20044;-83
2022/11/01 02:37:24;;;;;;;47.78;43.35;;;;;;;6.51;100.00;101806.69;5052352;28;20060;-87
2022/11/01 02:39:55;;;;;;;45.22;41.20;;;;;;;6.40;100.00;101801.63;5055990;28;20535;-84
2022/11/01 02:42:27;;;;;;;44.53;40.60;;;;;;;6.39;100.00;101803.44;5055865;28;20044;-86
2022/11/01 02:45:00;;;;;;;46.37;42.47;;;;;;;6.17;100.00;101810.03;5048650;28;20059;-88
2022/11/01 02:47:30;;;;;;;48.47;44.47;;;;;;;6.25;100.00;101806.63;5047577;28;20710;-85
2022/11/01 02:50:02;;;;;;;53.30;48.78;;;;;;;6.33;100.00;101797.97;5052090;28;20052;-85
2022/11/01 02:52:32;;;;;;;56.38;50.95;;;;;;;6.13;100.00;101798.09;5049156;28;20132;-84
2022/11/01 02:55:00;;;;;;;50.30;45.60;;;;;;;6.04;100.00;101799.00;5048823;28;20548;-86
2022/11/01 02:57:32;;;;;;;55.63;50.40;;;;;;;6.10;100.00;101814.22;5051434;28;20045;-88
2022/11/01 03:00:03;;;;;;;48.20;43.53;;;;;;;6.01;100.00;101811.66;5055477;28;20040;-87
2022/11/01 03:02:40;;;;;;;49.50;44.38;;;;;;;6.02;100.00;101813.31;5048157;28;20458;-86
2022/11/01 03:05:12;;;;;;;48.13;43.67;;;;;;;6.04;100.00;101814.81;5048023;28;20474;-87
2022/11/01 03:07:47;;;;;;;49.50;45.03;;;;;;;6.11;100.00;101813.25;5043634;28;20118;-83
2022/11/01 03:10:14;;;;;;;53.17;47.03;;;;;;;6.17;100.00;101822.34;5048340;28;20072;-84
2022/11/01 03:12:51;;;;;;;51.25;46.53;;;;;;;6.15;100.00;101819.06;5048411;28;20053;-84
2022/11/01 03:15:25;;;;;;;53.53;48.75;;;;;;;6.09;100.00;101820.47;5054457;28;20403;-84
2022/11/01 03:18:01;;;;;;;44.78;40.60;;;;;;;5.47;100.00;101819.41;5055672;28;20118;-83
2022/11/01 03:20:46;;;;;;;50.90;46.28;;;;;;;5.59;100.00;101828.78;5055657;28;20056;-83
2022/11/01 03:23:16;;;;;;;48.05;43.75;;;;;;;5.64;100.00;101823.09;5047130;28;20124;-83
2022/11/01 03:25:47;;;;;;;47.72;43.22;;;;;;;5.69;100.00;101821.66;5039591;28;20120;-83
2022/11/01 03:28:19;;;;;;;48.28;43.72;;;;;;;5.72;100.00;101828.47;5048451;28;20045;-83
2022/11/01 03:30:52;;;;;;;45.63;41.22;;;;;;;5.41;100.00;101817.34;5054839;28;20076;-87
2022/11/01 03:33:22;;;;;;;46.20;42.30;;;;;;;5.77;100.00;101817.47;5055168;28;20110;-86
2022/11/01 03:35:53;;;;;;;46.47;42.10;;;;;;;5.86;100.00;101816.56;5054239;28;20041;-87
2022/11/01 03:38:26;;;;;;;47.45;43.15;;;;;;;5.89;100.00;101821.53;5052922;28;20057;-86
2022/11/01 03:40:57;;;;;;;44.47;40.55;;;;;;;5.91;100.00;101822.25;5054975;28;20049;-87
2022/11/01 03:43:26;;;;;;;43.80;40.05;;;;;;;5.69;100.00;101820.84;5051712;28;20041;-85
2022/11/01 03:45:54;;;;;;;43.97;40.08;;;;;;;5.73;100.00;101816.94;5054689;28;20053;-87
2022/11/01 03:48:25;;;;;;;45.03;41.17;;;;;;;5.86;100.00;101816.56;5043115;28;20053;-85
2022/11/01 03:50:55;;;;;;;45.58;41.42;;;;;;;5.78;100.00;101811.19;5050746;28;20057;-87
2022/11/01 03:53:21;;;;;;;43.72;39.78;;;;;;;5.81;100.00;101818.81;5053232;28;20051;-87
2022/11/01 03:55:48;;;;;;;43.17;39.47;;;;;;;5.98;100.00;101818.06;5055616;28;20053;-85
2022/11/01 03:58:15;;;;;;;43.75;39.72;;;;;;;5.81;100.00;101821.44;5047665;28;20413;-83
2022/11/01 04:00:44;;;;;;;45.08;41.03;;;;;;;6.08;100.00;101813.56;5052829;28;20053;-86
2022/11/01 04:03:12;;;;;;;46.53;42.17;;;;;;;6.20;100.00;101819.41;5052586;28;20053;-86
2022/11/01 04:05:42;;;;;;;43.75;39.60;;;;;;;5.98;100.00;101825.97;5056586;28;20045;-86
2022/11/01 04:08:11;;;;;;;49.67;44.28;;;;;;;6.12;100.00;101816.72;5047773;28;20515;-86
2022/11/01 04:10:38;;;;;;;46.83;42.63;;;;;;;6.25;100.00;101822.44;5047746;28;20072;-87
2022/11/01 04:13:05;;;;;;;49.60;44.78;;;;;;;6.11;100.00;101821.19;5045000;28;20068;-83
2022/11/01 04:21:06;;;;;;;55.05;50.42;;;;;;;5.99;100.00;101829.44;5053692;28;20064;-84
2022/11/01 04:23:33;;;;;;;53.13;48.67;;;;;;;6.06;100.00;101830.50;5049371;28;20444;-83
2022/11/01 04:26:00;;;;;;;50.90;46.42;;;;;;;5.85;100.00;101825.47;5053365;28;20398;-83
2022/11/01 04:28:27;;;;;;;48.25;44.33;;;;;;;5.80;100.00;101831.16;5049534;28;20053;-83
2022/11/01 04:30:55;;;;;;;48.03;43.92;;;;;;;6.11;100.00;101833.50;5053921;28;20122;-85
2022/11/01 04:33:22;;;;;;;50.60;46.30;;;;;;;6.25;100.00;101827.72;5050840;28;20045;-87
2022/11/01 04:35:49;;;;;;;44.63;40.88;;;;;;;5.94;100.00;101824.59;5051772;28;20448;-86
2022/11/01 04:38:17;;;;;;;52.17;47.47;;;;;;;6.24;100.00;101828.72;5041315;28;20044;-86
2022/11/01 04:40:45;;;;;;;48.72;44.38;;;;;;;6.16;100.00;101844.44;5054219;28;20481;-87
2022/11/01 04:43:12;;;;;;;46.95;42.92;;;;;;;6.02;100.00;101837.03;5053454;28;20465;-86
2022/11/01 04:45:39;;;;;;;46.10;41.97;;;;;;;5.99;100.00;101839.97;5049035;28;20049;-87
2022/11/01 04:48:11;;;;;;;45.30;41.13;;;;;;;5.94;100.00;101838.63;5048166;28;20049;-87
2022/11/01 04:50:38;;;;;;;45.17;41.38;;;;;;;5.77;100.00;101839.38;5036291;28;20049;-86
2022/11/01 04:53:05;;;;;;;44.05;40.25;;;;;;;5.51;100.00;101837.44;5029422;28;20054;-83
2022/11/01 04:55:33;;;;;;;44.50;40.45;;;;;;;5.52;100.00;101838.25;5033610;28;20455;-83
2022/11/01 04:58:00;;;;;;;48.80;44.58;;;;;;;5.67;100.00;101836.78;5049278;28;20053;-86
2022/11/01 05:00:27;;;;;;;48.80;44.60;;;;;;;5.61;100.00;101840.00;4337038;28;10000775;-83
2022/11/01 05:03:00;;;;;;;48.97;44.22;;;;;;;5.56;100.00;101839.63;5031896;28;20045;-85
2022/11/01 05:05:27;;;;;;;47.83;43.35;;;;;;;5.49;100.00;101842.00;5036114;28;20518;-86
2022/11/01 05:07:59;;;;;;;53.20;48.08;;;;;;;5.19;100.00;101840.44;5028754;28;20465;-85
2022/11/01 05:10:26;;;;;;;61.65;53.95;;;;;;;5.49;100.00;101843.81;5034100;28;20499;-87
2022/11/01 05:12:54;;;;;;;48.60;43.72;;;;;;;5.61;100.00;101853.19;5036686;28;20053;-87
2022/11/01 05:15:22;;;;;;;45.38;40.88;;;;;;;5.68;100.00;101854.25;5036342;28;20589;-88
2022/11/01 05:17:50;;;;;;;44.55;40.58;;;;;;;5.56;100.00;101852.78;5048733;28;20053;-84
2022/11/01 05:20:16;;;;;;;48.28;43.47;;;;;;;5.70;100.00;101849.69;5035131;28;20118;-86
2022/11/01 05:22:43;;;;;;;49.80;44.90;;;;;;;5.97;100.00;101853.31;5041219;28;20049;-87
2022/11/01 05:25:10;;;;;;;49.05;44.63;;;;;;;6.04;100.00;101859.66;5033396;28;20061;-83
2022/11/01 05:27:37;;;;;;;49.47;44.88;;;;;;;6.17;100.00;101862.78;5048500;28;20053;-83
2022/11/01 05:30:06;;;;;;;47.92;43.90;;;;;;;6.30;100.00;101858.94;5038255;28;20103;-86
2022/11/01 05:32:34;;;;;;;47.63;43.75;;;;;;;6.34;100.00;101868.22;5045030;28;20445;-84
2022/11/01 05:35:01;;;;;;;47.42;43.10;;;;;;;6.53;100.00;101865.41;5027848;28;20056;-87
2022/11/01 05:37:28;;;;;;;49.03;44.95;;;;;;;6.63;100.00;101862.72;5045960;28;20144;-83
2022/11/01 05:39:55;;;;;;;47.88;43.75;;;;;;;6.78;100.00;101868.28;5035288;28;20473;-86
2022/11/01 05:42:22;;;;;;;47.88;44.13;;;;;;;6.84;100.00;101859.75;5033150;28;20053;-85
2022/11/01 05:44:48;;;;;;;50.38;45.78;;;;;;;7.07;100.00;101860.06;5044994;28;20118;-85
2022/11/01 05:47:16;;;;;;;48.28;43.90;;;;;;;7.14;100.00;101857.63;5047470;28;20528;-83
2022/11/01 05:49:43;;;;;;;49.30;44.80;;;;;;;7.40;100.00;101863.75;5048612;28;20114;-86
2022/11/01 05:52:10;;;;;;;47.60;43.50;;;;;;;7.46;100.00;101870.22;5034698;28;20061;-86
2022/11/01 05:54:37;;;;;;;50.88;46.15;;;;;;;7.57;100.00;101870.78;5035819;28;20048;-83
2022/11/01 05:57:05;;;;;;;52.40;47.50;;;;;;;7.77;100.00;101881.91;5032867;28;20040;-87
2022/11/01 05:59:31;;;;;;;54.60;49.47;;;;;;;8.31;100.00;101880.78;5034070;28;20053;-83
2022/11/01 06:01:58;;;;;;;56.30;51.05;;;;;;;8.31;100.00;101878.94;5028228;28;20563;-83
2022/11/01 06:04:27;;;;;;;50.38;45.47;;;;;;;8.43;100.00;101875.03;5035726;28;20103;-85
2022/11/01 06:06:54;;;;;;;49.88;45.78;;;;;;;8.73;100.00;101874.56;5032887;28;20038;-83
2022/11/01 06:09:20;;;;;;;50.30;45.40;;;;;;;9.12;100.00;101883.47;5049866;28;20493;-88
2022/11/01 06:11:47;;;;;;;49.22;44.78;;;;;;;9.55;100.00;101875.25;5004598;28;20452;-86
2022/11/01 06:14:14;;;;;;;48.15;43.92;;;;;;;9.82;100.00;101881.97;5044321;28;20053;-83
2022/11/01 06:16:41;;;;;;;48.17;43.40;;;;;;;9.95;100.00;101881.41;5050351;28;20045;-83
2022/11/01 06:19:09;;;;;;;50.58;46.53;;;;;;;10.37;100.00;101881.03;5049330;28;20049;-83
2022/11/01 06:21:37;;;;;;;47.40;43.13;;;;;;;9.93;100.00;101884.25;5043704;28;20071;-86
2022/11/01 06:24:04;;;;;;;46.90;42.90;;;;;;;10.62;100.00;101888.81;5040602;28;20049;-87
2022/11/01 06:26:31;;;;;;;45.67;41.85;;;;;;;10.48;100.00;101880.63;5045137;28;20063;-85
2022/11/01 06:29:00;;;;;;;48.25;44.15;;;;;;;11.02;100.00;101886.84;5043270;28;20053;-84
2022/11/01 06:31:27;;;;;;;46.95;42.95;;;;;;;11.44;100.00;101887.09;5038265;28;20042;-84
2022/11/01 06:33:53;;;;;;;43.80;40.53;;;;;;;11.65;100.00;101888.19;5035535;28;20469;-87
2022/11/01 06:36:21;;;;;;;43.58;39.80;;;;;;;11.74;100.00;101888.91;5043157;28;20057;-84
2022/11/01 06:38:50;;;;;;;57.55;51.72;;;;;;;11.84;100.00;101892.13;5047354;28;20059;-83
2022/11/01 06:41:16;;;;;;;47.35;43.33;;;;;;;12.78;100.00;101889.47;5043358;28;20049;-84
2022/11/01 06:43:48;;;;;;;71.80;62.15;;;;;;;12.54;100.00;101885.34;5049527;28;20057;-87
2022/11/01 06:46:15;;;;;;;55.88;50.20;;;;;;;12.88;100.00;101891.78;5033884;28;20049;-83
2022/11/01 06:48:41;;;;;;;131.90;101.57;;;;;;;13.06;100.00;101879.63;5047163;28;20060;-82
2022/11/01 06:51:08;;;;;;;42.20;39.25;;;;;;;13.03;100.00;101888.00;5045879;28;20169;-83
2022/11/01 06:53:35;;;;;;;44.58;41.03;;;;;;;13.09;100.00;101885.59;5048776;28;20060;-86
2022/11/01 06:56:05;;;;;;;43.92;40.45;;;;;;;13.47;100.00;101888.78;5038837;28;20049;-86
2022/11/01 06:58:32;;;;;;;43.15;40.05;;;;;;;13.93;100.00;101882.81;5048648;28;20053;-87
2022/11/01 07:01:01;;;;;;;43.17;39.85;;;;;;;13.89;100.00;101887.75;5046790;28;20045;-83
2022/11/01 07:03:28;;;;;;;44.78;41.28;;;;;;;14.35;100.00;101880.91;5048266;28;20128;-83
2022/11/01 07:05:55;;;;;;;46.40;42.17;;;;;;;14.85;100.00;101882.19;5049977;28;20057;-86
2022/11/01 07:08:22;;;;;;;45.28;41.65;;;;;;;15.18;100.00;101873.31;5052295;28;20053;-85
2022/11/01 07:10:50;;;;;;;42.88;39.42;;;;;;;15.16;100.00;101866.53;5042136;28;20056;-86
2022/11/01 07:13:18;;;;;;;43.78;40.55;;;;;;;14.97;100.00;101882.41;5046169;28;20041;-84
2022/11/01 07:15:47;;;;;;;43.53;39.97;;;;;;;15.24;100.00;101882.38;5053610;28;20455;-86
2022/11/01 07:18:14;;;;;;;45.78;42.33;;;;;;;16.14;100.00;101883.31;5050986;28;20053;-82
2022/11/01 07:20:41;;;;;;;43.13;40.22;;;;;;;16.10;100.00;101879.44;5046143;28;20053;-85
2022/11/01 07:23:11;;;;;;;40.90;38.10;;;;;;;16.43;100.00;101884.59;5053759;28;20045;-84
2022/11/01 07:25:38;;;;;;;41.45;38.50;;;;;;;16.25;100.00;101879.16;5040301;28;20060;-83
2022/11/01 07:28:09;;;;;;;42.90;40.00;;;;;;;17.09;100.00;101882.44;5045491;28;20041;-84
2022/11/01 07:30:39;;;;;;;42.33;39.35;;;;;;;17.11;100.00;101877.69;5049702;28;20055;-82
2022/11/01 07:33:06;;;;;;;49.63;46.13;;;;;;;16.78;100.00;101869.94;5050447;28;20053;-86
2022/11/01 07:35:34;;;;;;;42.30;39.40;;;;;;;17.33;100.00;101868.16;5050922;28;20114;-86
2022/11/01 07:38:02;;;;;;;46.45;43.10;;;;;;;18.21;100.00;101880.34;5044689;28;20045;-86
2022/11/01 07:40:29;;;;;;;41.47;38.67;;;;;;;17.29;100.00;101877.72;5052258;28;20052;-83
2022/11/01 07:42:58;;;;;;;43.00;39.72;;;;;;;18.48;100.00;101875.38;5051309;28;20131;-87
2022/11/01 07:45:26;;;;;;;41.92;38.75;;;;;;;19.37;100.00;101882.63;5045643;28;20052;-85
2022/11/01 07:47:58;;;;;;;41.55;38.65;;;;;;;17.90;100.00;101867.94;5050168;28;20103;-83
2022/11/01 07:50:26;;;;;;;41.10;38.22;;;;;;;18.77;100.00;101873.72;5052808;28;20053;-86
2022/11/01 07:53:00;;;;;;;43.72;40.80;;;;;;;19.27;100.00;101872.41;5051786;28;20049;-83
2022/11/01 07:55:26;;;;;;;41.72;38.88;;;;;;;19.56;100.00;101877.91;5050711;28;20049;-84
2022/11/01 07:57:53;;;;;;;62.95;54.78;;;;;;;19.69;100.00;101869.56;5016666;28;20104;-83
2022/11/01 08:00:20;;;;;;;49.20;45.05;;;;;;;20.52;100.00;101861.97;5050667;28;20049;-82
2022/11/01 08:02:47;;;;;;;42.00;39.00;;;;;;;20.11;100.00;101862.03;5040760;28;20114;-86
2022/11/01 08:05:16;;;;;;;42.63;39.63;;;;;;;20.19;100.00;101857.31;5045402;28;20053;-82
2022/11/01 08:07:43;;;;;;;41.03;37.63;;;;;;;21.34;100.00;101861.28;5037175;28;20572;-83
2022/11/01 08:10:12;;;;;;;41.97;38.83;;;;;;;21.02;100.00;101853.81;5030159;28;20057;-82
2022/11/01 08:12:38;;;;;;;40.95;38.15;;;;;;;21.29;95.50;101858.50;5054135;28;20114;-83
2022/11/01 08:15:06;;;;;;;41.70;38.70;;;;;;;21.02;100.00;101856.50;5049777;28;20056;-82
2022/11/01 08:17:34;;;;;;;43.38;39.97;;;;;;;21.67;94.91;101848.75;5053221;28;20045;-82
2022/11/01 08:20:00;;;;;;;44.92;41.20;;;;;;;21.79;90.43;101854.84;5050394;28;20119;-82
2022/11/01 08:22:28;;;;;;;49.28;45.03;;;;;;;21.66;91.74;101841.69;5048093;28;20041;-85
2022/11/01 08:24:55;;;;;;;97.97;62.63;;;;;;;22.23;87.97;101849.34;5044028;28;20496;-86
2022/11/01 08:27:22;;;;;;;51.95;46.92;;;;;;;22.46;90.29;101845.50;5038222;28;20049;-83
2022/11/01 08:29:49;;;;;;;48.95;44.40;;;;;;;22.31;89.37;101842.66;5037410;28;20048;-85
2022/11/01 08:32:19;;;;;;;46.28;42.47;;;;;;;22.61;84.25;101839.38;5038396;28;20048;-82
2022/11/01 08:34:46;;;;;;;44.67;41.42;;;;;;;22.74;81.81;101848.94;5034154;28;20516;-82
2022/11/01 08:37:13;;;;;;;41.10;38.50;;;;;;;23.67;80.63;101842.94;5034069;28;20567;-85
2022/11/01 08:39:41;;;;;;;42.40;39.42;;;;;;;24.30;69.94;101843.63;5036172;28;20057;-86
2022/11/01 08:42:09;;;;;;;43.67;40.10;;;;;;;23.73;68.02;101850.88;5033399;28;20100;-83
2022/11/01 08:44:36;;;;;;;42.22;39.30;;;;;;;23.76;70.84;101838.66;5052458;28;20480;-86
2022/11/01 08:47:04;;;;;;;43.10;40.05;;;;;;;23.80;67.63;101839.75;5049996;28;20140;-82
2022/11/01 08:49:30;;;;;;;43.28;40.67;;;;;;;24.38;65.62;101834.13;5048385;28;20059;-82
2022/11/01 08:51:57;;;;;;;44.03;41.13;;;;;;;24.39;62.06;101833.88;5042036;28;20068;-86
2022/11/01 08:54:24;;;;;;;46.60;43.33;;;;;;;24.31;68.04;101836.31;5043977;28;20045;-82
2022/11/01 08:56:52;;;;;;;45.00;41.88;;;;;;;24.53;63.86;101838.75;5033413;28;20055;-81
2022/11/01 08:59:19;;;;;;;46.20;42.70;;;;;;;24.92;60.97;101839.78;5048559;28;20750;-85
2022/11/01 09:01:46;;;;;;;45.58;42.45;;;;;;;25.41;60.70;101840.19;5035984;28;20049;-85
2022/11/01 09:04:14;;;;;;;45.42;42.03;;;;;;;24.03;65.90;101826.78;5027857;28;20057;-85
2022/11/01 09:06:41;;;;;;;46.47;43.05;;;;;;;24.20;68.66;101830.84;5034722;28;20438;-85
2022/11/01 09:09:09;;;;;;;44.97;41.60;;;;;;;25.43;59.32;101833.41;5041975;28;20044;-85
2022/11/01 09:11:36;;;;;;;43.13;40.47;;;;;;;25.71;57.74;101828.34;5039405;28;20065;-85
2022/11/01 09:14:04;;;;;;;44.80;41.53;;;;;;;26.00;55.66;101826.56;5038408;28;20056;-86
2022/11/01 09:16:32;;;;;;;45.95;42.72;;;;;;;24.85;58.03;101822.16;5046739;28;20515;-85
2022/11/01 09:19:00;;;;;;;43.25;40.22;;;;;;;25.88;53.47;101817.16;5052263;28;20158;-86
2022/11/01 09:21:27;;;;;;;44.05;40.92;;;;;;;24.40;61.12;101818.38;5037247;28;20053;-85
2022/11/01 09:23:55;;;;;;;45.97;42.55;;;;;;;24.90;55.17;101820.25;5052312;28;20045;-87
2022/11/01 09:26:22;;;;;;;45.35;42.35;;;;;;;25.45;59.42;101814.09;5046639;28;20052;-83
2022/11/01 09:28:49;;;;;;;45.15;42.45;;;;;;;25.52;55.00;101818.13;5051100;28;20045;-85
2022/11/01 09:31:17;;;;;;;44.08;41.35;;;;;;;26.30;52.88;101810.28;5026217;28;20057;-86
2022/11/01 09:33:43;;;;;;;44.20;41.25;;;;;;;24.18;67.48;101810.53;5034697;28;20049;-82
2022/11/01 09:36:10;;;;;;;44.20;41.05;;;;;;;23.34;70.43;101809.75;5033522;28;20049;-82
2022/11/01 09:38:37;;;;;;;45.15;41.67;;;;;;;23.47;78.82;101803.84;5033195;28;20064;-86
2022/11/01 09:41:09;;;;;;;43.33;40.35;;;;;;;26.84;57.09;101792.88;5036657;28;20055;-82
2022/11/01 09:43:39;;;;;;;43.27;40.37;;;;;;;27.22;51.45;101791.09;5032018;28;20061;-82
2022/11/01 09:46:08;;;;;;;43.95;40.95;;;;;;;27.27;50.86;101795.69;5026458;28;20115;-82
2022/11/01 09:48:36;;;;;;;45.15;41.72;;;;;;;27.71;51.12;101787.13;5033277;28;20049;-82
2022/11/01 09:51:10;;;;;;;45.65;42.50;;;;;;;27.52;48.63;101787.13;5040979;28;20053;-82
2022/11/01 09:53:36;;;;;;;42.42;39.58;;;;;;;28.00;46.08;101772.53;5045150;28;20106;-82
2022/11/01 09:56:11;;;;;;;42.67;39.72;;;;;;;23.24;68.83;101785.34;5045931;28;20519;-84
2022/11/01 09:58:48;;;;;;;43.67;40.75;;;;;;;23.00;73.10;101784.97;5038790;28;20226;-84
2022/11/01 10:01:29;;;;;;;42.45;39.45;;;;;;;26.78;57.83;101773.06;5043755;28;20556;-84
2022/11/01 10:04:09;;;;;;;43.10;40.05;;;;;;;25.66;56.12;101773.97;5033353;28;20046;-83
2022/11/01 10:06:41;;;;;;;43.58;40.65;;;;;;;25.66;55.57;101771.25;5042745;28;20057;-82
2022/11/01 10:09:17;;;;;;;42.45;39.50;;;;;;;25.01;63.80;101776.72;5047654;28;20106;-82
2022/11/01 10:11:57;;;;;;;45.13;41.97;;;;;;;27.99;53.61;101769.00;5034027;28;20041;-82
2022/11/01 10:14:39;;;;;;;45.17;41.88;;;;;;;25.16;47.61;101763.09;5037288;28;20111;-82
2022/11/01 10:17:13;;;;;;;45.45;42.25;;;;;;;25.76;49.71;101763.03;5054162;28;20044;-82
2022/11/01 10:19:44;;;;;;;45.30;41.80;;;;;;;26.15;67.35;101765.75;5031932;28;20458;-81
2022/11/01 10:22:17;;;;;;;45.03;42.10;;;;;;;25.36;64.24;101767.66;5030439;28;20049;-83
2022/11/01 10:24:52;;;;;;;43.75;40.85;;;;;;;23.83;68.74;101767.88;5036091;28;20080;-82
2022/11/01 10:27:25;;;;;;;43.55;40.50;;;;;;;25.56;63.51;101770.22;5039205;28;20488;-86
2022/11/01 10:30:00;;;;;;;44.83;41.83;;;;;;;25.11;67.93;101763.94;5045128;28;20045;-84
2022/11/01 10:32:33;;;;;;;44.95;42.05;;;;;;;26.30;59.12;101769.44;5032399;28;20106;-82
2022/11/01 10:35:05;;;;;;;46.28;43.13;;;;;;;27.14;56.69;101759.84;5038891;28;20111;-82
2022/11/01 10:37:37;;;;;;;46.28;42.92;;;;;;;24.71;64.18;101754.00;5044465;28;20469;-83
2022/11/01 10:40:12;;;;;;;44.42;41.30;;;;;;;25.18;68.97;101762.84;5041059;28;20404;-83
2022/11/01 10:42:39;;;;;;;44.38;41.13;;;;;;;25.08;60.79;101756.34;5029964;28;20076;-86
2022/11/01 10:45:10;;;;;;;45.33;41.88;;;;;;;25.04;54.60;101755.25;5049977;28;20068;-86
2022/11/01 10:47:41;;;;;;;43.83;40.47;;;;;;;25.28;65.64;101744.56;5044868;28;20056;-85
2022/11/01 10:50:17;;;;;;;43.67;40.42;;;;;;;24.92;64.14;101741.97;5044025;28;20055;-85
2022/11/01 10:52:50;;;;;;;44.38;41.25;;;;;;;24.80;63.27;101746.09;5033310;28;20049;-86
2022/11/01 10:55:21;;;;;;;43.40;40.55;;;;;;;27.13;51.68;101746.47;5033401;28;20111;-86
2022/11/01 10:57:52;;;;;;;44.43;41.47;;;;;;;25.90;59.38;101739.56;5031559;28;20124;-86
2022/11/01 11:00:21;;;;;;;42.30;39.38;;;;;;;27.32;52.20;101730.13;5045670;28;20107;-86
2022/11/01 11:02:51;;;;;;;40.42;37.75;;;;;;;26.65;55.79;101736.41;5049799;28;20137;-86
2022/11/01 11:05:21;;;;;;;41.63;38.53;;;;;;;25.84;59.99;101739.88;5041312;28;20048;-86
2022/11/01 11:07:48;;;;;;;42.72;39.75;;;;;;;25.09;61.22;101725.34;5052223;28;20166;-82
2022/11/01 11:10:20;;;;;;;44.30;41.40;;;;;;;26.18;45.92;101732.50;5044290;28;20053;-83
2022/11/01 11:12:49;;;;;;;;;;;;;;;26.66;49.58;101727.16;5044680;28;20060;-83
2022/11/01 11:15:21;;;;;;;42.70;39.47;;;;;;;26.39;57.90;101727.69;5054053;28;19920;-85
2022/11/01 11:17:54;;;;;;;45.28;42.10;;;;;;;26.92;50.24;101730.38;5032245;28;20133;-86
2022/11/01 11:20:29;;;;;;;46.55;43.60;;;;;;;26.54;58.47;101725.91;5052711;28;20041;-86
2022/11/01 11:22:56;;;;;;;46.78;43.45;;;;;;;25.80;57.39;101728.72;5044945;28;20561;-83
2022/11/01 11:25:32;;;;;;;44.92;41.67;;;;;;;27.84;52.47;101712.75;5048406;28;20057;-83